Time;durP1;ratioP1;P1;durP2;ratioP2;P2;SDS_P1;SDS_P2;PMS_P1;PMS_P2;Temp;Humidity;BMP_temperature;BMP_pressure;BME280_temperature;BME280_humidity;BME280_pressure;Samples;Min_cycle;Max_cycle;Signal;HPM_P1;HPM_P2
2022/01/11 00:01:08;;;;;;;;;;;1.40;99.90;;;;;;4974468;28;19961;-72
2022/01/11 00:03:41;;;;;;;;;;;1.40;99.90;;;;;;5005972;28;20024;-72
2022/01/11 00:08:49;;;;;;;;;;;1.40;99.90;;;;;;4972202;28;19962;-72
2022/01/11 00:11:15;;;;;;;;;;;1.40;99.90;;;;;;4981148;28;19972;-72
2022/01/11 00:13:42;;;;;;;;;;;1.40;99.90;;;;;;5034328;28;20106;-72
2022/01/11 00:16:11;;;;;;;;;;;1.40;99.90;;;;;;5032670;28;19931;-71
2022/01/11 00:18:38;;;;;;;;;;;1.40;99.90;;;;;;4993543;28;20455;-72
2022/01/11 00:21:10;;;;;;;;;;;1.40;99.90;;;;;;5055441;28;20361;-72
2022/01/11 00:26:03;;;;;;;;;;;1.40;99.90;;;;;;5075389;28;20412;-73
2022/01/11 00:28:35;;;;;;;;;;;1.50;99.90;;;;;;5075799;28;19924;-72
2022/01/11 00:31:20;;;;;;;;;;;1.40;99.90;;;;;;5008499;28;19925;-73
2022/01/11 00:33:48;;;;;;;;;;;1.50;99.90;;;;;;4996406;28;19925;-72
2022/01/11 00:36:20;;;;;;;;;;;1.50;99.90;;;;;;5009037;28;19925;-72
2022/01/11 00:38:52;;;;;;;;;;;1.50;99.90;;;;;;4993298;28;20016;-72
2022/01/11 00:41:18;;;;;;;;;;;1.50;99.90;;;;;;4993362;28;20451;-71
2022/01/11 00:43:45;;;;;;;;;;;1.50;99.90;;;;;;4973553;28;20388;-71
2022/01/11 00:46:17;;;;;;;;;;;1.50;99.90;;;;;;4974781;28;19936;-72
2022/01/11 00:48:48;;;;;;;;;;;1.50;99.90;;;;;;4973710;28;19933;-72
2022/01/11 00:51:20;;;;;;;;;;;1.60;99.90;;;;;;4975124;28;19926;-72
2022/01/11 00:53:53;;;;;;;;;;;1.50;99.90;;;;;;4973238;28;19926;-72
2022/01/11 00:56:25;;;;;;;;;;;1.60;99.90;;;;;;4973664;28;20384;-71
2022/01/11 00:58:52;;;;;;;;;;;1.60;99.90;;;;;;4990895;28;19926;-72
2022/01/11 01:01:23;;;;;;;;;;;1.60;99.90;;;;;;4958343;28;19926;-72
2022/01/11 01:03:56;;;;;;;;;;;1.50;99.90;;;;;;5010115;28;20021;-71
2022/01/11 01:06:28;;;;;;;;;;;1.60;99.90;;;;;;5009739;28;20028;-72
2022/01/11 01:09:00;;;;;;;;;;;1.60;99.90;;;;;;4992778;28;19925;-71
2022/01/11 01:11:31;;;;;;;;;;;1.60;99.90;;;;;;4991469;28;19932;-72
2022/01/11 01:13:58;;;;;;;;;;;1.60;99.90;;;;;;4989053;28;19979;-71
2022/01/11 01:16:25;;;;;;;;;;;1.60;99.90;;;;;;4990444;28;20029;-72
2022/01/11 01:19:06;;;;;;;;;;;1.60;99.90;;;;;;4959513;28;19926;-71
2022/01/11 01:21:38;;;;;;;;;;;1.60;99.90;;;;;;4975739;28;19972;-72
2022/01/11 01:24:10;;;;;;;;;;;1.60;99.90;;;;;;4993533;28;20029;-72
2022/01/11 01:26:42;;;;;;;;;;;1.60;99.90;;;;;;4992986;28;19983;-71
2022/01/11 01:29:14;;;;;;;;;;;1.60;99.90;;;;;;4992865;28;20024;-71
2022/01/11 01:31:46;;;;;;;;;;;1.60;99.90;;;;;;4974999;28;20304;-71
2022/01/11 01:34:17;;;;;;;;;;;1.60;99.90;;;;;;4989672;28;19926;-71
2022/01/11 01:36:44;;;;;;;;;;;1.60;99.90;;;;;;4956863;28;20032;-72
2022/01/11 01:39:11;;;;;;;;;;;1.60;99.90;;;;;;4971951;28;20020;-72
2022/01/11 01:41:44;;;;;;;;;;;1.60;99.90;;;;;;4991796;28;19930;-71
2022/01/11 01:44:16;;;;;;;;;;;1.60;99.90;;;;;;4976540;28;19929;-72
2022/01/11 01:46:48;;;;;;;;;;;1.60;99.90;;;;;;5009516;28;20375;-71
2022/01/11 01:49:22;;;;;;;;;;;1.60;99.90;;;;;;4993138;28;19965;-71
2022/01/11 01:51:49;;;;;;;;;;;1.60;99.90;;;;;;4989616;28;20016;-72
2022/01/11 01:54:23;;;;;;;;;;;1.60;99.90;;;;;;4957099;28;19932;-73
2022/01/11 01:56:49;;;;;;;;;;;1.60;99.90;;;;;;4989811;28;19926;-72
2022/01/11 01:59:16;;;;;;;;;;;1.60;99.90;;;;;;4988481;28;20431;-71
2022/01/11 02:01:49;;;;;;;;;;;1.60;99.90;;;;;;4970754;28;19975;-72
2022/01/11 02:04:20;;;;;;;;;;;1.60;99.90;;;;;;4990874;28;20333;-71
2022/01/11 02:06:52;;;;;;;;;;;1.60;99.90;;;;;;4991296;28;19929;-71
2022/01/11 02:09:24;;;;;;;;;;;1.60;99.90;;;;;;5008685;28;20359;-71
2022/01/11 02:11:55;;;;;;;;;;;1.60;99.90;;;;;;4972637;28;19957;-71
2022/01/11 02:14:27;;;;;;;;;;;1.60;99.90;;;;;;4956449;28;19933;-71
2022/01/11 02:17:01;;;;;;;;;;;1.60;99.90;;;;;;4957230;28;19926;-71
2022/01/11 02:19:33;;;;;;;;;;;1.60;99.90;;;;;;4972258;28;19930;-72
2022/01/11 02:22:00;;;;;;;;;;;1.60;99.90;;;;;;4987404;28;20028;-71
2022/01/11 02:24:30;;;;;;;;;;;1.60;99.90;;;;;;5004562;28;19975;-71
2022/01/11 02:27:05;;;;;;;;;;;1.60;99.90;;;;;;4972289;28;19933;-72
2022/01/11 02:29:40;;;;;;;;;;;1.60;99.90;;;;;;4971223;28;19930;-71
2022/01/11 02:32:07;;;;;;;;;;;1.60;99.90;;;;;;4978941;28;19934;-71
2022/01/11 02:34:34;;;;;;;;;;;1.60;99.90;;;;;;4951992;28;19973;-72
2022/01/11 02:37:19;;;;;;;;;;;1.60;99.90;;;;;;4952790;28;19969;-72
2022/01/11 02:39:55;;;;;;;;;;;1.60;99.90;;;;;;4971146;28;19968;-71
2022/01/11 02:42:29;;;;;;;;;;;1.60;99.90;;;;;;5003897;28;19930;-71
2022/01/11 02:45:01;;;;;;;;;;;1.60;99.90;;;;;;5004008;28;19926;-71
2022/01/11 02:47:35;;;;;;;;;;;1.60;99.90;;;;;;4972064;28;19933;-72
2022/01/11 02:50:02;;;;;;;;;;;1.60;99.90;;;;;;4971698;28;20715;-72
2022/01/11 02:52:40;;;;;;;;;;;1.60;99.90;;;;;;4968620;28;19933;-71
2022/01/11 02:55:13;;;;;;;;;;;1.60;99.90;;;;;;4991144;28;19925;-71
2022/01/11 02:57:41;;;;;;;;;;;1.60;99.90;;;;;;4975490;28;19975;-72
2022/01/11 03:00:19;;;;;;;;;;;1.60;99.90;;;;;;4978715;28;19926;-71
2022/01/11 03:02:51;;;;;;;;;;;1.60;99.90;;;;;;4963311;28;19962;-72
2022/01/11 03:05:26;;;;;;;;;;;1.60;99.90;;;;;;5036517;28;19926;-71
2022/01/11 03:08:00;;;;;;;;;;;1.50;99.90;;;;;;5015560;28;19933;-72
2022/01/11 03:10:34;;;;;;;;;;;1.60;99.90;;;;;;5014966;28;19926;-72
2022/01/11 03:13:05;;;;;;;;;;;1.60;99.90;;;;;;4964095;28;20304;-71
2022/01/11 03:15:32;;;;;;;;;;;1.60;99.90;;;;;;4969072;28;20012;-72
2022/01/11 03:18:07;;;;;;;;;;;1.60;99.90;;;;;;4952274;28;20458;-71
2022/01/11 03:20:45;;;;;;;;;;;1.60;99.90;;;;;;5051698;28;19991;-72
2022/01/11 03:23:18;;;;;;;;;;;1.60;99.90;;;;;;4987641;28;20480;-71
2022/01/11 03:25:51;;;;;;;;;;;1.60;99.90;;;;;;4975690;28;19964;-72
2022/01/11 03:28:25;;;;;;;;;;;1.60;99.90;;;;;;5008526;28;19925;-71
2022/01/11 03:30:57;;;;;;;;;;;1.60;99.90;;;;;;4990962;28;19925;-72
2022/01/11 03:33:34;;;;;;;;;;;1.60;99.90;;;;;;4975993;28;19933;-72
2022/01/11 03:36:01;;;;;;;;;;;1.60;99.90;;;;;;4974854;28;20384;-72
2022/01/11 03:38:34;;;;;;;;;;;1.60;99.90;;;;;;4990866;28;20738;-73
2022/01/11 03:41:07;;;;;;;;;;;1.60;99.90;;;;;;4990772;28;19925;-72
2022/01/11 03:43:33;;;;;;;;;;;1.60;99.90;;;;;;4956009;28;20017;-71
2022/01/11 03:46:09;;;;;;;;;;;1.60;99.90;;;;;;4971403;28;19972;-71
2022/01/11 03:48:40;;;;;;;;;;;1.60;99.90;;;;;;4971267;28;19969;-71
2022/01/11 03:51:13;;;;;;;;;;;1.60;99.90;;;;;;4972409;28;20013;-72
2022/01/11 03:53:57;;;;;;;;;;;1.60;99.90;;;;;;4989958;28;20295;-72
2022/01/11 03:56:29;;;;;;;;;;;1.60;99.90;;;;;;4983725;28;19926;-71
2022/01/11 03:59:08;;;;;;;;;;;1.60;99.90;;;;;;4985423;28;20276;-72
2022/01/11 04:01:37;;;;;;;;;;;1.60;99.90;;;;;;4977748;28;19925;-70
2022/01/11 04:04:09;;;;;;;;;;;1.60;99.90;;;;;;4993378;28;19933;-71
2022/01/11 04:06:41;;;;;;;;;;;1.60;99.90;;;;;;4994697;28;19925;-72
2022/01/11 04:09:13;;;;;;;;;;;1.60;99.90;;;;;;4958952;28;19930;-72
2022/01/11 04:11:40;;;;;;;;;;;1.60;99.90;;;;;;4955316;28;20334;-71
2022/01/11 04:14:12;;;;;;;;;;;1.60;99.90;;;;;;4954611;28;19926;-71
2022/01/11 04:16:44;;;;;;;;;;;1.60;99.90;;;;;;4954805;28;19930;-72
2022/01/11 04:19:16;;;;;;;;;;;1.60;99.90;;;;;;4954720;28;19933;-72
2022/01/11 04:21:43;;;;;;;;;;;1.60;99.90;;;;;;4986476;28;20012;-70
2022/01/11 04:24:15;;;;;;;;;;;1.60;99.90;;;;;;4993099;28;19960;-72
2022/01/11 04:26:49;;;;;;;;;;;1.60;99.90;;;;;;4978298;28;19925;-72
2022/01/11 04:29:21;;;;;;;;;;;1.60;99.90;;;;;;4977892;28;19925;-72
2022/01/11 04:31:48;;;;;;;;;;;1.60;99.90;;;;;;4967046;28;19933;-72
2022/01/11 04:34:20;;;;;;;;;;;1.60;99.90;;;;;;4958037;28;20269;-72
2022/01/11 04:36:51;;;;;;;;;;;1.60;99.90;;;;;;4991159;28;20028;-72
2022/01/11 04:39:25;;;;;;;;;;;1.60;99.90;;;;;;4990936;28;19925;-72
2022/01/11 04:41:57;;;;;;;;;;;1.60;99.90;;;;;;4984852;28;20027;-72
2022/01/11 04:44:29;;;;;;;;;;;1.60;99.90;;;;;;4992821;28;19925;-72
2022/01/11 04:47:01;;;;;;;;;;;1.60;99.90;;;;;;4977614;28;20390;-72
2022/01/11 04:49:32;;;;;;;;;;;1.60;99.90;;;;;;4992819;28;20380;-72
2022/01/11 04:52:00;;;;;;;;;;;1.60;99.90;;;;;;4978467;28;19926;-72
2022/01/11 04:54:27;;;;;;;;;;;1.60;99.90;;;;;;4973601;28;19926;-72
2022/01/11 04:56:54;;;;;;;;;;;1.60;99.90;;;;;;4992201;28;19929;-72
2022/01/11 04:59:30;;;;;;;;;;;1.60;99.90;;;;;;4992209;28;19933;-72
2022/01/11 05:02:02;;;;;;;;;;;1.60;99.90;;;;;;4974455;28;20582;-73
2022/01/11 05:04:29;;;;;;;;;;;1.60;99.90;;;;;;4985486;28;19930;-72
2022/01/11 05:07:01;;;;;;;;;;;1.60;99.90;;;;;;4982457;28;19926;-73
2022/01/11 05:09:28;;;;;;;;;;;1.60;99.90;;;;;;4992509;28;19953;-72
2022/01/11 05:11:55;;;;;;;;;;;1.60;99.90;;;;;;4993319;28;20411;-73
2022/01/11 05:14:27;;;;;;;;;;;1.60;99.90;;;;;;5019787;28;19951;-72
2022/01/11 05:16:59;;;;;;;;;;;1.60;99.90;;;;;;4958892;28;20292;-72
2022/01/11 05:19:26;;;;;;;;;;;1.50;99.90;;;;;;4974419;28;19971;-72
2022/01/11 05:21:58;;;;;;;;;;;1.60;99.90;;;;;;4982012;28;20451;-72
2022/01/11 05:24:24;;;;;;;;;;;1.60;99.90;;;;;;4991714;28;19926;-72
2022/01/11 05:26:56;;;;;;;;;;;1.60;99.90;;;;;;4992058;28;19931;-73
2022/01/11 05:29:31;;;;;;;;;;;1.60;99.90;;;;;;5009570;28;19952;-72
2022/01/11 05:31:58;;;;;;;;;;;1.50;99.90;;;;;;4982737;28;19925;-73
2022/01/11 05:34:30;;;;;;;;;;;1.50;99.90;;;;;;4969129;28;19992;-72
2022/01/11 05:36:57;;;;;;;;;;;1.50;99.90;;;;;;4975165;28;19988;-73
2022/01/11 05:39:29;;;;;;;;;;;1.50;99.90;;;;;;4958996;28;19925;-73
2022/01/11 05:42:01;;;;;;;;;;;1.50;99.90;;;;;;4938579;28;19926;-72
2022/01/11 05:44:27;;;;;;;;;;;1.50;99.90;;;;;;4989352;28;20020;-72
2022/01/11 05:47:00;;;;;;;;;;;1.50;99.90;;;;;;4988151;28;19926;-72
2022/01/11 05:49:27;;;;;;;;;;;1.50;99.90;;;;;;4988557;28;19937;-72
2022/01/11 05:51:59;;;;;;;;;;;1.50;99.90;;;;;;5042683;28;19930;-72
2022/01/11 05:54:26;;;;;;;;;;;1.50;99.90;;;;;;4967466;28;20017;-72
2022/01/11 05:56:52;;;;;;;;;;;1.60;99.90;;;;;;4977166;28;19947;-72
2022/01/11 05:59:24;;;;;;;;;;;1.50;99.90;;;;;;4969993;28;19936;-72
2022/01/11 06:01:56;;;;;;;;;;;1.50;99.90;;;;;;4986730;28;19926;-73
2022/01/11 06:04:24;;;;;;;;;;;1.50;99.90;;;;;;4974152;28;19934;-72
2022/01/11 06:06:56;;;;;;;;;;;1.50;99.90;;;;;;5012446;28;20002;-73
2022/01/11 06:09:28;;;;;;;;;;;1.50;99.90;;;;;;5036042;28;19924;-72
2022/01/11 06:12:00;;;;;;;;;;;1.50;99.90;;;;;;5074071;28;20034;-72
2022/01/11 06:14:27;;;;;;;;;;;1.50;99.90;;;;;;5056407;28;20042;-72
2022/01/11 06:16:58;;;;;;;;;;;1.40;99.90;;;;;;5036076;28;19925;-72
2022/01/11 06:19:31;;;;;;;;;;;1.40;99.90;;;;;;4974178;28;19932;-72
2022/01/11 06:22:06;;;;;;;;;;;1.40;99.90;;;;;;4980016;28;20380;-72
2022/01/11 06:24:38;;;;;;;;;;;1.40;99.90;;;;;;4987057;28;20036;-72
2022/01/11 06:27:10;;;;;;;;;;;1.40;99.90;;;;;;4988280;28;19933;-72
2022/01/11 06:29:41;;;;;;;;;;;1.40;99.90;;;;;;4987848;28;19926;-72
2022/01/11 06:32:08;;;;;;;;;;;1.40;99.90;;;;;;4971777;28;19930;-72
2022/01/11 06:34:35;;;;;;;;;;;1.40;99.90;;;;;;4990459;28;19930;-72
2022/01/11 06:37:07;;;;;;;;;;;1.30;99.90;;;;;;4971531;28;19926;-72
2022/01/11 06:39:36;;;;;;;;;;;1.30;99.90;;;;;;4990250;28;19926;-72
2022/01/11 06:42:08;;;;;;;;;;;1.30;99.90;;;;;;5013675;28;19969;-72
2022/01/11 06:44:37;;;;;;;;;;;1.30;99.90;;;;;;5042071;28;19931;-73
2022/01/11 06:47:06;;;;;;;;;;;1.30;99.90;;;;;;4986508;28;19979;-73
2022/01/11 06:49:34;;;;;;;;;;;1.30;99.90;;;;;;5004392;28;19934;-72
2022/01/11 06:52:06;;;;;;;;;;;1.30;99.90;;;;;;4982058;28;20012;-72
2022/01/11 06:54:42;;;;;;;;;;;1.30;99.90;;;;;;4951400;28;20396;-72
2022/01/11 06:57:14;;;;;;;;;;;1.30;99.90;;;;;;4970268;28;19936;-72
2022/01/11 06:59:41;;;;;;;;;;;1.20;99.90;;;;;;5027733;28;19979;-72
2022/01/11 07:02:10;;;;;;;;;;;1.30;99.90;;;;;;5006706;28;19964;-72
2022/01/11 07:04:56;;;;;;;;;;;1.20;99.90;;;;;;4984262;28;20385;-72
2022/01/11 07:07:28;;;;;;;;;;;1.30;99.90;;;;;;4976937;28;20365;-72
2022/01/11 07:10:00;;;;;;;;;;;1.20;99.90;;;;;;4986223;28;19930;-71
2022/01/11 07:12:32;;;;;;;;;;;1.20;99.90;;;;;;4995174;28;19926;-72
2022/01/11 07:15:04;;;;;;;;;;;1.20;99.90;;;;;;5012893;28;19926;-72
2022/01/11 07:17:31;;;;;;;;;;;1.20;99.90;;;;;;5019582;28;20024;-72
2022/01/11 07:19:59;;;;;;;;;;;1.20;99.90;;;;;;4973724;28;19927;-72
2022/01/11 07:22:26;;;;;;;;;;;1.20;99.90;;;;;;4967880;28;19939;-72
2022/01/11 07:24:58;;;;;;;;;;;1.20;99.90;;;;;;5029650;28;19937;-72
2022/01/11 07:27:33;;;;;;;;;;;1.10;99.90;;;;;;4979722;28;20020;-72
2022/01/11 07:30:02;;;;;;;;;;;1.10;99.90;;;;;;4983522;28;19958;-72
2022/01/11 07:32:35;;;;;;;;;;;1.10;99.90;;;;;;4994388;28;19979;-72
2022/01/11 07:35:03;;;;;;;;;;;1.10;99.90;;;;;;5059782;28;19931;-72
2022/01/11 07:37:36;;;;;;;;;;;1.10;99.90;;;;;;5023456;28;19930;-72
2022/01/11 07:40:07;;;;;;;;;;;1.10;99.90;;;;;;4978074;28;19932;-72
2022/01/11 07:42:34;;;;;;;;;;;1.00;99.90;;;;;;4962722;28;19930;-71
2022/01/11 07:45:12;;;;;;;;;;;1.00;99.90;;;;;;5032412;28;19926;-72
2022/01/11 07:47:44;;;;;;;;;;;1.00;99.90;;;;;;4951123;28;19933;-72
2022/01/11 07:50:11;;;;;;;;;;;1.00;99.90;;;;;;4986669;28;20308;-72
2022/01/11 07:52:43;;;;;;;;;;;0.90;99.90;;;;;;4992096;28;19925;-72
2022/01/11 07:55:15;;;;;;;;;;;0.90;99.90;;;;;;4980869;28;20358;-71
2022/01/11 07:57:51;;;;;;;;;;;0.80;99.90;;;;;;4999647;28;19976;-72
2022/01/11 08:00:23;;;;;;;;;;;0.90;99.90;;;;;;5018308;28;20297;-72
2022/01/11 08:02:55;;;;;;;;;;;0.90;99.90;;;;;;5001350;28;20426;-72
2022/01/11 08:05:39;;;;;;;;;;;0.90;99.90;;;;;;4974942;28;20013;-71
2022/01/11 08:08:06;;;;;;;;;;;0.90;99.90;;;;;;4971197;28;19926;-73
2022/01/11 08:10:34;;;;;;;;;;;1.00;99.90;;;;;;4954196;28;19932;-71
2022/01/11 08:13:05;;;;;;;;;;;1.00;99.90;;;;;;4974925;28;20438;-71
2022/01/11 08:15:41;;;;;;;;;;;1.00;99.90;;;;;;4985850;28;19937;-70
2022/01/11 08:18:13;;;;;;;;;;;1.00;99.90;;;;;;4980643;28;19926;-71
2022/01/11 08:20:44;;;;;;;;;;;1.10;99.90;;;;;;4960197;28;19956;-71
2022/01/11 08:23:17;;;;;;;;;;;1.10;99.90;;;;;;4966327;28;19965;-71
2022/01/11 08:25:49;;;;;;;;;;;1.10;99.90;;;;;;4987372;28;19926;-72
2022/01/11 08:28:20;;;;;;;;;;;1.20;99.90;;;;;;4980528;28;19934;-71
2022/01/11 08:30:54;;;;;;;;;;;1.30;99.90;;;;;;4993050;28;19926;-72
2022/01/11 08:33:28;;;;;;;;;;;1.40;99.90;;;;;;4986696;28;19926;-72
2022/01/11 08:36:01;;;;;;;;;;;1.40;99.90;;;;;;5013272;28;19979;-72
2022/01/11 08:38:35;;;;;;;;;;;1.50;99.90;;;;;;5004543;28;19926;-72
2022/01/11 08:41:04;;;;;;;;;;;1.60;99.90;;;;;;5014632;28;19933;-72
2022/01/11 08:43:37;;;;;;;;;;;1.70;99.90;;;;;;5012956;28;19925;-72
2022/01/11 08:46:09;;;;;;;;;;;1.70;99.90;;;;;;4992105;28;19978;-72
2022/01/11 08:49:06;;;;;;;;;;;1.70;99.90;;;;;;5023959;28;19953;-72
2022/01/11 08:51:38;;;;;;;;;;;1.70;99.90;;;;;;5016216;28;19971;-72
2022/01/11 08:54:05;;;;;;;;;;;1.70;99.90;;;;;;4984782;28;19933;-72
2022/01/11 08:56:32;;;;;;;;;;;1.70;99.90;;;;;;5005103;28;20032;-72
2022/01/11 08:59:04;;;;;;;;;;;1.70;99.90;;;;;;4984604;28;19930;-72
2022/01/11 09:01:34;;;;;;;;;;;1.60;99.90;;;;;;5000386;28;20274;-72
2022/01/11 09:04:02;;;;;;;;;;;1.60;99.90;;;;;;4987510;28;19926;-72
2022/01/11 09:06:58;;;;;;;;;;;1.60;99.90;;;;;;4974511;28;20384;-72
2022/01/11 09:09:25;;;;;;;;;;;1.60;99.90;;;;;;5058334;28;19957;-72
2022/01/11 09:11:58;;;;;;;;;;;1.60;99.90;;;;;;5019582;28;20030;-72
2022/01/11 09:14:33;;;;;;;;;;;1.60;99.90;;;;;;4938559;28;20363;-72
2022/01/11 09:17:05;;;;;;;;;;;1.60;99.90;;;;;;4953324;28;20273;-72
2022/01/11 09:19:38;;;;;;;;;;;1.70;99.90;;;;;;4973475;28;19930;-72
2022/01/11 09:22:13;;;;;;;;;;;1.70;99.90;;;;;;4989176;28;20380;-72
2022/01/11 09:24:41;;;;;;;;;;;1.70;99.90;;;;;;4976432;28;19926;-72
2022/01/11 09:27:16;;;;;;;;;;;1.80;99.90;;;;;;4992518;28;19925;-72
2022/01/11 09:29:45;;;;;;;;;;;1.70;99.90;;;;;;4991762;28;20007;-72
2022/01/11 09:32:18;;;;;;;;;;;1.70;99.90;;;;;;4976580;28;19979;-72
2022/01/11 09:34:50;;;;;;;;;;;1.70;99.90;;;;;;4981460;28;19935;-72
2022/01/11 09:37:26;;;;;;;;;;;1.70;99.90;;;;;;4988802;28;19979;-72
2022/01/11 09:39:58;;;;;;;;;;;1.80;99.90;;;;;;5019634;28;19933;-72
2022/01/11 09:42:30;;;;;;;;;;;1.80;99.90;;;;;;4989226;28;19926;-72
2022/01/11 09:45:04;;;;;;;;;;;1.80;99.90;;;;;;4965418;28;19934;-73
2022/01/11 09:47:41;;;;;;;;;;;1.90;99.90;;;;;;5002463;28;19929;-72
2022/01/11 09:50:16;;;;;;;;;;;1.90;99.90;;;;;;4989483;28;19948;-72
2022/01/11 09:52:51;;;;;;;;;;;2.00;99.90;;;;;;4979391;28;20349;-72
2022/01/11 09:55:24;;;;;;;;;;;2.10;99.90;;;;;;4973284;28;19933;-73
2022/01/11 09:57:56;;;;;;;;;;;2.30;99.90;;;;;;5069552;28;19936;-73
2022/01/11 10:00:46;;;;;;;;;;;2.50;99.90;;;;;;4990993;28;20319;-72
2022/01/11 10:03:51;;;;;;;;;;;2.70;99.90;;;;;;4974462;28;19929;-72
2022/01/11 10:06:18;;;;;;;;;;;2.80;99.90;;;;;;4988408;28;20272;-72
2022/01/11 10:08:45;;;;;;;;;;;2.90;99.90;;;;;;5034110;28;20012;-72
2022/01/11 10:11:12;;;;;;;;;;;2.90;99.90;;;;;;4972549;28;19975;-72
2022/01/11 10:13:43;;;;;;;;;;;2.90;99.90;;;;;;5004670;28;19928;-72
2022/01/11 10:16:26;;;;;;;;;;;3.00;99.90;;;;;;5057923;28;19924;-72
2022/01/11 10:19:01;;;;;;;;;;;2.90;99.90;;;;;;5006716;28;19973;-72
2022/01/11 10:21:35;;;;;;;;;;;2.90;99.90;;;;;;4989622;28;20038;-72
2022/01/11 10:24:22;;;;;;;;;;;2.90;99.90;;;;;;5020890;28;19983;-72
2022/01/11 10:26:53;;;;;;;;;;;2.90;99.90;;;;;;5021362;28;19926;-72
2022/01/11 10:29:31;;;;;;;;;;;2.90;99.90;;;;;;4982050;28;20335;-72
2022/01/11 10:32:09;;;;;;;;;;;2.90;99.90;;;;;;4953045;28;20273;-72
2022/01/11 10:34:42;;;;;;;;;;;2.90;99.90;;;;;;4999758;28;19933;-72
2022/01/11 10:37:10;;;;;;;;;;;2.90;99.90;;;;;;5055657;28;19983;-72
2022/01/11 10:39:43;;;;;;;;;;;2.90;99.90;;;;;;5056197;28;19975;-74
2022/01/11 10:42:29;;;;;;;;;;;3.00;99.90;;;;;;5056660;28;20360;-72
2022/01/11 10:44:59;;;;;;;;;;;3.00;99.90;;;;;;5033462;28;19924;-72
2022/01/11 10:47:35;;;;;;;;;;;3.00;99.90;;;;;;5000796;28;19930;-72
2022/01/11 10:50:11;;;;;;;;;;;3.00;99.90;;;;;;4996045;28;19926;-72
2022/01/11 10:52:43;;;;;;;;;;;3.00;99.90;;;;;;4954072;28;20460;-72
2022/01/11 10:55:19;;;;;;;;;;;3.00;99.90;;;;;;4977707;28;19926;-72
2022/01/11 10:57:54;;;;;;;;;;;3.00;99.90;;;;;;4976413;28;19926;-72
2022/01/11 11:00:28;;;;;;;;;;;3.00;99.90;;;;;;4975345;28;19926;-73
2022/01/11 11:02:57;;;;;;;;;;;3.00;99.90;;;;;;4987548;28;19926;-71
2022/01/11 11:05:26;;;;;;;;;;;3.00;99.90;;;;;;4971862;28;20350;-71
2022/01/11 11:07:58;;;;;;;;;;;3.00;99.90;;;;;;4972207;28;19930;-72
2022/01/11 11:10:32;;;;;;;;;;;3.00;99.90;;;;;;4988693;28;19933;-72
2022/01/11 11:13:05;;;;;;;;;;;3.10;99.90;;;;;;4975558;28;19979;-72
2022/01/11 11:15:38;;;;;;;;;;;3.10;99.90;;;;;;4987823;28;19961;-72
2022/01/11 11:18:29;;;;;;;;;;;3.10;99.90;;;;;;5011945;28;19926;-71
2022/01/11 11:21:10;;;;;;;;;;;3.10;99.90;;;;;;4973697;28;19998;-71
2022/01/11 11:23:37;;;;;;;;;;;3.10;99.90;;;;;;4974276;28;19973;-72
2022/01/11 11:26:08;;;;;;;;;;;3.10;99.90;;;;;;4975020;28;19926;-72
2022/01/11 11:28:40;;;;;;;;;;;3.20;99.90;;;;;;4992144;28;20486;-72
2022/01/11 11:31:07;;;;;;;;;;;3.20;99.90;;;;;;5087869;28;19924;-72
2022/01/11 11:33:36;;;;;;;;;;;3.30;99.90;;;;;;5071466;28;19967;-71
2022/01/11 11:36:10;;;;;;;;;;;3.20;99.90;;;;;;5023694;28;20018;-71
2022/01/11 11:38:40;;;;;;;;;;;3.30;99.90;;;;;;5094928;28;19935;-72
2022/01/11 11:41:12;;;;;;;;;;;3.30;99.90;;;;;;5076967;28;19964;-71
2022/01/11 11:44:02;;;;;;;;;;;3.40;99.90;;;;;;4980266;28;19976;-71
2022/01/11 11:46:42;;;;;;;;;;;3.40;99.90;;;;;;4976234;28;19972;-72
2022/01/11 11:49:15;;;;;;;;;;;3.40;99.90;;;;;;4978790;28;19930;-71
2022/01/11 11:51:46;;;;;;;;;;;3.40;99.90;;;;;;4976968;28;20470;-71
2022/01/11 11:54:14;;;;;;;;;;;3.40;99.90;;;;;;5047220;28;20352;-71
2022/01/11 11:56:45;;;;;;;;;;;3.50;99.90;;;;;;5059097;28;19926;-71
2022/01/11 11:59:18;;;;;;;;;;;3.50;99.90;;;;;;5053812;28;20087;-71
2022/01/11 12:01:50;;;;;;;;;;;3.50;99.90;;;;;;5059047;28;19925;-71
2022/01/11 12:04:26;;;;;;;;;;;3.60;99.90;;;;;;5043704;28;19926;-71
2022/01/11 12:07:18;;;;;;;;;;;3.60;99.90;;;;;;5072808;28;20009;-72
2022/01/11 12:09:45;;;;;;;;;;;3.60;99.90;;;;;;4974084;28;19974;-71
2022/01/11 12:12:16;;;;;;;;;;;3.60;99.90;;;;;;4991486;28;20462;-71
2022/01/11 12:14:43;;;;;;;;;;;3.60;99.90;;;;;;4973940;28;20293;-73
2022/01/11 12:17:09;;;;;;;;;;;3.70;99.90;;;;;;4974292;28;19926;-72
2022/01/11 12:19:43;;;;;;;;;;;3.70;99.90;;;;;;4991803;28;19935;-72
2022/01/11 12:22:30;;;;;;;;;;;3.70;99.90;;;;;;4973091;28;19926;-72
2022/01/11 12:24:58;;;;;;;;;;;3.80;99.90;;;;;;4977123;28;19931;-71
2022/01/11 12:27:25;;;;;;;;;;;3.70;99.90;;;;;;4990349;28;20446;-71
2022/01/11 12:29:56;;;;;;;;;;;3.70;99.90;;;;;;4996723;28;20024;-73
2022/01/11 12:32:29;;;;;;;;;;;3.70;99.90;;;;;;4993755;28;19960;-73
2022/01/11 12:35:00;;;;;;;;;;;3.80;99.90;;;;;;5030730;28;20024;-72
2022/01/11 12:37:32;;;;;;;;;;;3.80;99.90;;;;;;4981316;28;20029;-72
2022/01/11 12:40:05;;;;;;;;;;;3.80;99.90;;;;;;4989236;28;19929;-72
2022/01/11 12:42:32;;;;;;;;;;;3.80;99.90;;;;;;4996180;28;19931;-73
2022/01/11 12:47:44;;;;;;;;;;;3.80;99.90;;;;;;4990802;28;20422;-72
2022/01/11 12:50:12;;;;;;;;;;;3.80;99.90;;;;;;4988749;28;20020;-72
2022/01/11 12:52:39;;;;;;;;;;;3.80;99.90;;;;;;5001628;28;19926;-73
2022/01/11 12:55:12;;;;;;;;;;;3.90;99.90;;;;;;4985215;28;19965;-73
2022/01/11 12:57:39;;;;;;;;;;;3.90;99.90;;;;;;5047764;28;19924;-72
2022/01/11 13:00:12;;;;;;;;;;;4.00;99.90;;;;;;5015048;28;19975;-72
2022/01/11 13:02:44;;;;;;;;;;;4.20;99.90;;;;;;4979687;28;20403;-72
2022/01/11 13:05:19;;;;;;;;;;;4.20;99.90;;;;;;4975945;28;19934;-72
2022/01/11 13:07:51;;;;;;;;;;;4.20;99.90;;;;;;4966490;28;19926;-72
2022/01/11 13:10:26;;;;;;;;;;;4.10;99.90;;;;;;5070837;28;19928;-72
2022/01/11 13:13:03;;;;;;;;;;;4.00;99.90;;;;;;5073985;28;20018;-72
2022/01/11 13:15:37;;;;;;;;;;;4.00;99.90;;;;;;5001470;28;19925;-72
2022/01/11 13:18:07;;;;;;;;;;;3.90;99.90;;;;;;4991818;28;20392;-71
2022/01/11 13:20:41;;;;;;;;;;;4.00;99.90;;;;;;4976259;28;19926;-72
2022/01/11 13:23:17;;;;;;;;;;;4.00;99.90;;;;;;4972940;28;20727;-72
2022/01/11 13:25:57;;;;;;;;;;;4.00;99.90;;;;;;4970263;28;20010;-72
2022/01/11 13:28:33;;;;;;;;;;;3.90;99.90;;;;;;5000151;28;19925;-74
2022/01/11 13:31:02;;;;;;;;;;;3.90;99.90;;;;;;5003246;28;20294;-74
2022/01/11 13:33:38;;;;;;;;;;;3.90;99.90;;;;;;4986323;28;19926;-71
2022/01/11 13:36:12;;;;;;;;;;;3.80;99.90;;;;;;4967475;28;19926;-71
2022/01/11 13:38:45;;;;;;;;;;;3.80;99.90;;;;;;4974147;28;19926;-71
2022/01/11 13:41:25;;;;;;;;;;;3.80;99.90;;;;;;4990910;28;19961;-71
2022/01/11 13:43:58;;;;;;;;;;;3.80;99.90;;;;;;4987717;28;20019;-71
2022/01/11 13:46:27;;;;;;;;;;;3.80;99.90;;;;;;5009521;28;20016;-73
2022/01/11 13:48:59;;;;;;;;;;;3.70;99.90;;;;;;4979815;28;20024;-71
2022/01/11 13:51:31;;;;;;;;;;;3.70;99.90;;;;;;4985215;28;19933;-71
2022/01/11 13:54:06;;;;;;;;;;;3.60;99.90;;;;;;5009169;28;19926;-71
2022/01/11 13:56:34;;;;;;;;;;;3.60;99.90;;;;;;4986248;28;20024;-72
2022/01/11 13:59:06;;;;;;;;;;;3.60;99.90;;;;;;4983863;28;20024;-73
2022/01/11 14:01:38;;;;;;;;;;;3.60;99.90;;;;;;4992022;28;20016;-71
2022/01/11 14:04:11;;;;;;;;;;;3.60;99.90;;;;;;4990900;28;19987;-71
2022/01/11 14:06:47;;;;;;;;;;;3.60;99.90;;;;;;4972949;28;19948;-71
2022/01/11 14:09:22;;;;;;;;;;;3.60;99.90;;;;;;4994226;28;20017;-71
2022/01/11 14:12:03;;;;;;;;;;;3.50;99.90;;;;;;5012154;28;19936;-73
2022/01/11 14:14:35;;;;;;;;;;;3.50;99.90;;;;;;5014282;28;19976;-73
2022/01/11 14:17:17;;;;;;;;;;;3.50;99.90;;;;;;4975033;28;19926;-72
2022/01/11 14:19:45;;;;;;;;;;;3.50;99.90;;;;;;5041677;28;19959;-73
2022/01/11 14:22:12;;;;;;;;;;;3.40;99.90;;;;;;4982511;28;20020;-73
2022/01/11 14:24:59;;;;;;;;;;;3.40;99.90;;;;;;5002889;28;19930;-73
2022/01/11 14:27:27;;;;;;;;;;;3.40;99.90;;;;;;4993063;28;19968;-73
2022/01/11 14:30:01;;;;;;;;;;;3.30;99.90;;;;;;4962424;28;20004;-73
2022/01/11 14:32:29;;;;;;;;;;;3.30;99.90;;;;;;5012579;28;19979;-72
2022/01/11 14:35:02;;;;;;;;;;;3.30;99.90;;;;;;4988516;28;20016;-72
2022/01/11 14:37:35;;;;;;;;;;;3.30;99.90;;;;;;4973197;28;20025;-73
2022/01/11 14:40:18;;;;;;;;;;;3.20;99.90;;;;;;4970718;28;20305;-73
2022/01/11 14:42:45;;;;;;;;;;;3.20;99.90;;;;;;4962991;28;20388;-72
2022/01/11 14:45:24;;;;;;;;;;;3.20;99.90;;;;;;4977528;28;20285;-73
2022/01/11 14:47:53;;;;;;;;;;;3.20;99.90;;;;;;4985666;28;19925;-72
2022/01/11 14:50:25;;;;;;;;;;;3.20;99.90;;;;;;4971519;28;19969;-72
2022/01/11 14:53:03;;;;;;;;;;;3.20;99.90;;;;;;4974838;28;20021;-74
2022/01/11 14:55:47;;;;;;;;;;;3.20;99.90;;;;;;5020775;28;20342;-73
2022/01/11 14:58:17;;;;;;;;;;;3.10;99.90;;;;;;4994561;28;21536;-72
2022/01/11 15:00:50;;;;;;;;;;;3.10;99.90;;;;;;4974379;28;19961;-70
2022/01/11 15:03:29;;;;;;;;;;;3.10;99.90;;;;;;4989700;28;19929;-73
2022/01/11 15:06:02;;;;;;;;;;;3.10;99.90;;;;;;5000650;28;20547;-72
2022/01/11 15:08:35;;;;;;;;;;;3.00;99.90;;;;;;4969276;28;19926;-72